Aeroporto :
LOGIN :

Iscrizione | Disclaimer

   EN    FR    IT 

 










Sommario :    VFR   VFR Marginale   IFR   IFR Intensivo   IFR Molto Intensivo
Visibilità : 
Base nubi : 
>= 8 km
>= 3000ft
5 / 8 km
1000 / 3000 ft
1500m / 5 km
500 / 1000 ft
800 / 1500m
200 / 500 ft
< 800m
< 200 ft
Simboli :   Temporali  Nebbia  Neve Forte  Precipitazioni Forti  Vento > 20 kt
SIGMETs :   Varie  Temporali  Ghiacco  Turbolenza  Onda orograficha  Ceneri Vulcaniche






- Altitudine del aeroporto : 101 ft
- Codice IATA : GLO


EGBJ - Gloucestershire

ULTIMO METAR :
  • 011150Z 32005KT 290V360 9999 SCT040 08/02 Q1024

METARs OBSOLETI :
  • 011120Z 27002KT 9999 SCT045 09/02 Q1024
  • 011050Z 29002KT 9999 BKN047 08/03 Q1024
  • 011020Z 27002KT 9999 BKN047 07/03 Q1025
  • 010950Z 00000KT 9999 BKN046 07/02 Q1025
  • 010920Z 00000KT 9999 BKN046 06/02 Q1025

TAF TAF EGBJ
Valido dal 01 a 12 ore il 01 a 19 ore UTC


011059Z 0112/0119 29002KT 9999 SCT045
BECMG 0112/0115 33012KT
PROB30
TEMPO 0112/0115 9000 -SHRA



MetMap, La meteo Aeronautica in un colpo d'occhio ! - Copyright ORBIFLY Dicembre 2007 - Disclaimer

ORBIFLY MET'MAP TEAM :

Programmazione e sviluppo : Alexandra Zaïnal
Concezione : Baudouin d'Aumeries
Aiuto per la programmazione : Marc-Olivier Méhu
Supporto tecnico e logistico : Manuel Goepfert
Aiuto per la traduzione : Arnaldo La Scala

Contatto : metmap@orbifly.com




FONTI E CREDITI :

   NOAA